createdAt,value
2022-10-17T00:02:39.971Z,62.5
2022-10-17T00:03:46.420Z,62.5
2022-10-17T00:04:52.853Z,62.5
2022-10-17T00:07:05.716Z,62.5
2022-10-17T00:09:18.561Z,62.5
2022-10-17T00:10:24.964Z,62.5
2022-10-17T00:11:49.902Z,62.5
2022-10-17T00:14:39.765Z,62.5
2022-10-17T00:16:23.265Z,62.5
2022-10-17T00:17:30.352Z,62.5
2022-10-17T00:18:55.408Z,62.5
2022-10-17T00:20:20.367Z,62.5
2022-10-17T00:21:45.341Z,62.5
2022-10-17T00:23:10.295Z,62.5
2022-10-17T00:24:35.200Z,62.5
2022-10-17T00:25:41.622Z,62.5
2022-10-17T00:27:54.468Z,62.5
2022-10-17T00:29:19.399Z,62.5
2022-10-17T00:31:02.923Z,62.5
2022-10-17T00:32:46.391Z,62.5
2022-10-17T00:34:29.858Z,62.5
2022-10-17T00:36:13.750Z,62.5
2022-10-17T00:38:15.754Z,62.5
2022-10-17T00:39:40.767Z,62.5
2022-10-17T00:41:24.176Z,62.5
2022-10-17T00:43:07.652Z,62.5
2022-10-17T00:44:51.212Z,62.5
2022-10-17T00:46:16.043Z,62.5
2022-10-17T00:47:40.994Z,62.5
2022-10-17T00:49:05.939Z,62.5
2022-10-17T00:50:30.885Z,62.5
2022-10-17T00:51:55.859Z,62.5
2022-10-17T00:53:20.830Z,62.5
2022-10-17T00:55:04.769Z,62.5
2022-10-17T00:56:11.181Z,62.5
2022-10-17T00:57:36.625Z,62.5
2022-10-17T00:59:01.641Z,62.5
2022-10-17T01:00:26.504Z,62.5
2022-10-17T01:01:51.464Z,62.5
2022-10-17T01:03:16.404Z,62.5
2022-10-17T01:04:41.361Z,62.5
2022-10-17T01:06:06.297Z,62.5
2022-10-17T01:07:33.101Z,62.5
2022-10-17T01:08:56.235Z,62.5
2022-10-17T01:10:39.669Z,62.5
2022-10-17T01:11:46.090Z,62.5
2022-10-17T01:13:11.058Z,62.5
2022-10-17T01:14:35.997Z,62.5
2022-10-17T01:16:48.848Z,62.5
2022-10-17T01:17:55.260Z,62.5
2022-10-17T01:19:01.665Z,62.5
2022-10-17T01:21:14.524Z,62.5
2022-10-17T01:22:20.960Z,62.5
2022-10-17T01:23:27.379Z,62.5
2022-10-17T01:24:33.826Z,62.5
2022-10-17T01:26:46.654Z,62.5
2022-10-17T01:27:53.091Z,62.5
2022-10-17T01:29:18.008Z,62.5
2022-10-17T01:30:42.947Z,62.5
2022-10-17T01:32:07.914Z,62.5
2022-10-17T01:33:51.390Z,62.5
2022-10-17T01:34:57.798Z,62.5
2022-10-17T01:36:22.749Z,62.5
2022-10-17T01:37:47.754Z,62.5
2022-10-17T01:39:32.496Z,62.5
2022-10-17T01:40:37.622Z,62.5
2022-10-17T01:42:02.557Z,62.5
2022-10-17T01:43:27.516Z,62.5
2022-10-17T01:45:10.979Z,62.5
2022-10-17T01:46:35.925Z,62.5
2022-10-17T01:47:42.419Z,62.5
2022-10-17T01:48:48.795Z,62.5
2022-10-17T01:49:55.284Z,62.5
2022-10-17T01:51:01.613Z,62.5
2022-10-17T01:52:08.038Z,62.5
2022-10-17T01:54:20.894Z,62.5
2022-10-17T01:55:27.306Z,62.5
2022-10-17T01:56:33.763Z,62.5
2022-10-17T01:57:40.164Z,62.5
2022-10-17T01:58:46.600Z,62.5
2022-10-17T01:59:53.004Z,62.5
2022-10-17T02:02:05.868Z,62.5
2022-10-17T02:03:30.798Z,62.5
2022-10-17T02:04:55.804Z,62.5
2022-10-17T02:06:20.693Z,62.5
2022-10-17T02:09:10.589Z,62.5
2022-10-17T02:10:54.070Z,62.5
2022-10-17T02:12:00.548Z,62.5
2022-10-17T02:13:25.454Z,62.5
2022-10-17T02:14:50.376Z,62.5
2022-10-17T02:16:15.364Z,62.5
2022-10-17T02:17:40.296Z,62.5
2022-10-17T02:19:05.234Z,62.5
2022-10-17T02:20:30.180Z,62.5
2022-10-17T02:21:55.139Z,62.5
2022-10-17T02:23:20.096Z,62
2022-10-17T02:24:45.036Z,62
2022-10-17T02:26:28.771Z,62
2022-10-17T02:27:35.253Z,62
2022-10-17T02:29:00.197Z,62
2022-10-17T02:30:25.144Z,62
2022-10-17T02:31:50.050Z,62
2022-10-17T02:33:14.979Z,62
2022-10-17T02:34:21.412Z,62
2022-10-17T02:35:27.827Z,62
2022-10-17T02:36:34.267Z,62
2022-10-17T02:37:40.676Z,62
2022-10-17T02:38:47.097Z,62
2022-10-17T02:39:53.521Z,62
2022-10-17T02:40:59.956Z,62
2022-10-17T02:42:06.400Z,62.5
2022-10-17T02:43:12.837Z,62.5
2022-10-17T02:44:19.227Z,62.5
2022-10-17T02:45:25.649Z,62.5
2022-10-17T02:46:32.572Z,62.5
2022-10-17T02:47:38.989Z,62.5
2022-10-17T02:48:45.440Z,62.5
2022-10-17T02:49:51.908Z,62
2022-10-17T02:50:58.273Z,62
2022-10-17T02:52:04.704Z,62
2022-10-17T02:53:11.156Z,62
2022-10-17T02:54:17.532Z,62
2022-10-17T02:55:23.992Z,62
2022-10-17T02:57:36.840Z,62
2022-10-17T02:58:43.266Z,62
2022-10-17T02:59:49.673Z,62
2022-10-17T03:00:56.136Z,62
2022-10-17T03:02:02.511Z,62
2022-10-17T03:04:15.382Z,62
2022-10-17T03:05:21.801Z,62
2022-10-17T03:06:28.694Z,62
2022-10-17T03:07:35.125Z,62
2022-10-17T03:08:41.564Z,62
2022-10-17T03:09:47.996Z,62
2022-10-17T03:10:54.403Z,62
2022-10-17T03:12:00.830Z,62
2022-10-17T03:13:07.250Z,62
2022-10-17T03:14:13.782Z,62
2022-10-17T03:15:20.110Z,62
2022-10-17T03:16:26.527Z,62
2022-10-17T03:17:33.041Z,62
2022-10-17T03:18:39.385Z,62
2022-10-17T03:19:45.797Z,62
2022-10-17T03:20:52.237Z,62
2022-10-17T03:21:58.656Z,62
2022-10-17T03:23:05.078Z,62
2022-10-17T03:24:11.552Z,62
2022-10-17T03:25:17.984Z,62
2022-10-17T03:26:24.404Z,62
2022-10-17T03:28:37.293Z,62
2022-10-17T03:29:43.719Z,62
2022-10-17T03:30:50.107Z,62
2022-10-17T03:31:56.520Z,62
2022-10-17T03:33:02.951Z,62
2022-10-17T03:34:09.389Z,62
2022-10-17T03:35:15.811Z,62
2022-10-17T03:36:22.237Z,62
2022-10-17T03:37:28.811Z,62
2022-10-17T03:38:35.074Z,62
2022-10-17T03:40:47.937Z,62
2022-10-17T03:41:54.356Z,62
2022-10-17T03:44:07.616Z,62
2022-10-17T03:45:32.566Z,62
2022-10-17T03:47:16.057Z,62
2022-10-17T03:48:22.448Z,62
2022-10-17T03:49:47.398Z,62
2022-10-17T03:51:12.360Z,62
2022-10-17T03:52:37.474Z,62
2022-10-17T03:54:02.249Z,62
2022-10-17T03:55:27.201Z,62
2022-10-17T03:56:52.194Z,62
2022-10-17T03:58:17.608Z,62
2022-10-17T04:00:49.014Z,62
2022-10-17T04:01:55.381Z,62
2022-10-17T04:04:08.255Z,62
2022-10-17T04:05:14.659Z,62
2022-10-17T04:06:21.084Z,62
2022-10-17T04:07:27.705Z,62
2022-10-17T04:08:34.340Z,62
2022-10-17T04:09:40.760Z,62
2022-10-17T04:10:47.187Z,62
2022-10-17T04:12:12.133Z,62
2022-10-17T04:13:18.533Z,62
2022-10-17T04:14:24.974Z,62
2022-10-17T04:15:31.421Z,62
2022-10-17T04:16:37.832Z,62
2022-10-17T04:17:44.291Z,62
2022-10-17T04:18:50.722Z,62
2022-10-17T04:19:57.094Z,62
2022-10-17T04:22:09.951Z,62
2022-10-17T04:23:16.366Z,62
2022-10-17T04:24:22.794Z,61.5
2022-10-17T04:25:31.249Z,61.5
2022-10-17T04:27:42.059Z,62
2022-10-17T04:28:48.479Z,62
2022-10-17T04:29:54.917Z,62
2022-10-17T04:32:07.788Z,62
2022-10-17T04:33:51.228Z,62
2022-10-17T04:34:57.647Z,62
2022-10-17T04:36:22.608Z,62
2022-10-17T04:38:06.068Z,62
2022-10-17T04:40:37.453Z,62
2022-10-17T04:42:02.415Z,62
2022-10-17T04:43:27.375Z,62
2022-10-17T04:45:10.825Z,62
2022-10-17T04:46:17.255Z,62
2022-10-17T04:47:42.228Z,62
2022-10-17T04:48:48.597Z,62
2022-10-17T04:49:55.023Z,62
2022-10-17T04:51:01.442Z,62
2022-10-17T04:52:07.878Z,62
2022-10-17T04:53:14.310Z,62
2022-10-17T04:54:20.753Z,62
2022-10-17T04:55:27.147Z,62
2022-10-17T04:56:33.579Z,62
2022-10-17T04:57:40.130Z,62
2022-10-17T04:59:04.933Z,62
2022-10-17T05:00:11.364Z,62
2022-10-17T05:01:17.819Z,62
2022-10-17T05:02:24.203Z,62
2022-10-17T05:03:30.659Z,62
2022-10-17T05:04:37.070Z,62
2022-10-17T05:05:43.495Z,62
2022-10-17T05:06:49.906Z,62
2022-10-17T05:07:56.330Z,62
2022-10-17T05:09:03.305Z,62
2022-10-17T05:10:09.709Z,62
2022-10-17T05:11:16.146Z,62
2022-10-17T05:12:22.570Z,62
2022-10-17T05:13:28.998Z,62
2022-10-17T05:14:35.426Z,62
2022-10-17T05:15:41.831Z,62
2022-10-17T05:16:48.254Z,62
2022-10-17T05:19:01.173Z,62
2022-10-17T05:20:07.563Z,62
2022-10-17T05:21:13.974Z,62
2022-10-17T05:22:20.466Z,62
2022-10-17T05:23:26.801Z,62
2022-10-17T05:24:33.238Z,62
2022-10-17T05:25:39.662Z,62
2022-10-17T05:26:46.099Z,62
2022-10-17T05:27:52.502Z,62
2022-10-17T05:28:59.544Z,62
2022-10-17T05:31:12.318Z,62
2022-10-17T05:32:18.739Z,62
2022-10-17T05:33:25.168Z,62
2022-10-17T05:34:31.619Z,62
2022-10-17T05:35:38.007Z,62
2022-10-17T05:36:44.444Z,62
2022-10-17T05:38:57.284Z,62
2022-10-17T05:40:22.231Z,62
2022-10-17T05:41:47.172Z,62
2022-10-17T05:43:12.115Z,62
2022-10-17T05:44:37.064Z,62
2022-10-17T05:46:02.001Z,62
2022-10-17T05:47:27.241Z,62
2022-10-17T05:48:51.921Z,62
2022-10-17T05:50:16.987Z,62
2022-10-17T05:51:41.890Z,62
2022-10-17T05:53:06.834Z,62
2022-10-17T05:54:31.760Z,62
2022-10-17T05:55:38.191Z,62
2022-10-17T05:56:44.636Z,62
2022-10-17T05:57:51.043Z,62
2022-10-17T05:59:00.988Z,62
2022-10-17T06:00:03.914Z,62
2022-10-17T06:01:12.028Z,62
2022-10-17T06:02:16.807Z,62
2022-10-17T06:03:23.155Z,62
2022-10-17T06:05:36.032Z,62
2022-10-17T06:07:48.872Z,62
2022-10-17T06:09:32.322Z,62
2022-10-17T06:10:38.725Z,62
2022-10-17T06:12:03.692Z,62
2022-10-17T06:13:28.634Z,62
2022-10-17T06:14:53.608Z,62
2022-10-17T06:16:18.544Z,62
2022-10-17T06:18:02.023Z,62
2022-10-17T06:19:08.452Z,62
2022-10-17T06:20:33.384Z,62
2022-10-17T06:21:58.398Z,62
2022-10-17T06:23:23.268Z,62
2022-10-17T06:24:29.689Z,62
2022-10-17T06:25:36.104Z,62
2022-10-17T06:26:42.542Z,62
2022-10-17T06:28:55.435Z,62
2022-10-17T06:31:08.254Z,62
2022-10-17T06:32:15.186Z,62
2022-10-17T06:33:21.090Z,62
2022-10-17T06:35:34.070Z,62
2022-10-17T06:36:40.483Z,62
2022-10-17T06:38:05.447Z,62
2022-10-17T06:39:30.360Z,62
2022-10-17T06:40:55.325Z,62
2022-10-17T06:42:20.262Z,62
2022-10-17T06:43:45.212Z,62
2022-10-17T06:45:10.170Z,62
2022-10-17T06:46:35.111Z,62
2022-10-17T06:48:00.123Z,62
2022-10-17T06:49:25.026Z,62
2022-10-17T06:50:50.231Z,62
2022-10-17T06:52:15.149Z,62
2022-10-17T06:54:28.014Z,62
2022-10-17T06:55:34.436Z,62
2022-10-17T06:58:53.712Z,62
2022-10-17T07:00:00.142Z,62
2022-10-17T07:02:13.386Z,62.5
2022-10-17T07:03:19.822Z,62.5
2022-10-17T07:04:26.241Z,63
2022-10-17T07:06:39.092Z,62.5
2022-10-17T07:08:04.030Z,62.5
2022-10-17T07:09:29.055Z,62.5
2022-10-17T07:11:12.652Z,63
2022-10-17T07:12:19.007Z,63
2022-10-17T07:13:44.502Z,63
2022-10-17T07:15:09.394Z,63
2022-10-17T07:16:34.415Z,63
2022-10-17T07:17:59.296Z,63
2022-10-17T07:19:24.269Z,63
2022-10-17T07:20:49.211Z,63
2022-10-17T07:22:14.139Z,63
2022-10-17T07:23:20.576Z,63
2022-10-17T07:24:26.992Z,63
2022-10-17T07:25:35.202Z,63
2022-10-17T07:26:39.955Z,63
2022-10-17T07:27:46.274Z,63
2022-10-17T07:29:59.113Z,63
2022-10-17T07:31:05.552Z,63
2022-10-17T07:32:11.967Z,63
2022-10-17T07:33:18.406Z,63
2022-10-17T07:34:24.831Z,63
2022-10-17T07:35:31.246Z,63
2022-10-17T07:36:37.671Z,63
2022-10-17T07:37:44.104Z,63
2022-10-17T07:38:50.527Z,63
2022-10-17T07:41:03.371Z,63
2022-10-17T07:42:09.827Z,63
2022-10-17T07:43:16.529Z,63
2022-10-17T07:44:41.439Z,63
2022-10-17T07:46:06.392Z,63
2022-10-17T07:47:31.685Z,63
2022-10-17T07:48:56.282Z,63
2022-10-17T07:50:21.250Z,63.5
2022-10-17T07:53:11.153Z,63.5
2022-10-17T07:54:36.102Z,63
2022-10-17T07:56:01.062Z,63
2022-10-17T07:57:26.029Z,63
2022-10-17T07:58:50.973Z,63
2022-10-17T08:00:32.444Z,63
2022-10-17T08:01:38.773Z,63
2022-10-17T08:02:45.289Z,63
2022-10-17T08:03:51.638Z,63
2022-10-17T08:04:58.061Z,63
2022-10-17T08:06:04.471Z,63
2022-10-17T08:07:20.872Z,63
2022-10-17T08:08:17.515Z,63
2022-10-17T08:09:23.867Z,63
2022-10-17T08:10:30.305Z,63
2022-10-17T08:11:36.723Z,63
2022-10-17T08:13:49.614Z,63
2022-10-17T08:14:56.015Z,63.5
2022-10-17T08:16:02.433Z,63.5
2022-10-17T08:18:15.276Z,63.5
2022-10-17T08:19:40.218Z,63.5
2022-10-17T08:21:05.159Z,63.5
2022-10-17T08:22:30.356Z,63.5
2022-10-17T08:23:55.055Z,63.5
2022-10-17T08:25:20.007Z,63
2022-10-17T08:26:47.185Z,63
2022-10-17T08:28:09.928Z,63.5
2022-10-17T08:29:34.903Z,63.5
2022-10-17T08:30:59.803Z,63.5
2022-10-17T08:32:24.763Z,63.5
2022-10-17T08:34:56.117Z,63.5
2022-10-17T08:36:02.554Z,63.5
2022-10-17T08:37:08.973Z,63.5
2022-10-17T08:38:16.868Z,63.5
2022-10-17T08:39:21.823Z,63.5
2022-10-17T08:40:28.253Z,63.5
2022-10-17T08:41:34.657Z,63.5
2022-10-17T08:42:41.092Z,63.5
2022-10-17T08:43:47.511Z,63.5
2022-10-17T08:44:53.964Z,63.5
2022-10-17T08:46:00.406Z,63.5
2022-10-17T08:48:13.206Z,63.5
2022-10-17T08:49:19.635Z,63.5
2022-10-17T08:50:26.546Z,63.5
2022-10-17T08:51:32.979Z,63.5
2022-10-17T08:52:39.423Z,63.5
2022-10-17T08:54:52.275Z,63.5
2022-10-17T08:56:19.677Z,63.5
2022-10-17T08:57:42.146Z,63.5
2022-10-17T08:59:07.085Z,63.5
2022-10-17T09:00:32.043Z,63.5
2022-10-17T09:01:56.954Z,63
2022-10-17T09:03:22.006Z,63
2022-10-17T09:04:46.874Z,63.5
2022-10-17T09:06:11.829Z,63
2022-10-17T09:07:36.772Z,63.5
2022-10-17T09:09:01.737Z,63.5
2022-10-17T09:10:26.682Z,63.5
2022-10-17T09:11:51.603Z,63.5
2022-10-17T09:12:58.042Z,63.5
2022-10-17T09:14:04.510Z,63.5
2022-10-17T09:15:10.862Z,63.5
2022-10-17T09:16:17.327Z,63.5
2022-10-17T09:18:30.201Z,63.5
2022-10-17T09:20:43.010Z,63.5
2022-10-17T09:21:49.443Z,63.5
2022-10-17T09:24:09.284Z,63.5
2022-10-17T09:25:45.859Z,63.5
2022-10-17T09:26:52.251Z,63.5
2022-10-17T09:28:17.217Z,63.5
2022-10-17T09:29:43.908Z,63.5
2022-10-17T09:31:07.123Z,63
2022-10-17T09:32:32.311Z,63
2022-10-17T09:33:57.023Z,63.5
2022-10-17T09:35:21.953Z,63.5
2022-10-17T09:37:05.430Z,63.5
2022-10-17T09:38:11.872Z,63.5
2022-10-17T09:40:43.213Z,63.5
2022-10-17T09:42:56.062Z,63.5
2022-10-17T09:45:08.905Z,63
2022-10-17T09:46:15.331Z,63
2022-10-17T09:47:21.768Z,63
2022-10-17T09:48:28.256Z,63
2022-10-17T09:49:34.662Z,62.5
2022-10-17T09:50:41.086Z,62.5
2022-10-17T09:51:47.510Z,62
2022-10-17T09:52:53.918Z,62
2022-10-17T09:54:18.878Z,62.5
2022-10-17T09:55:43.806Z,62.5
2022-10-17T09:57:08.767Z,62.5
2022-10-17T09:58:33.714Z,62.5
2022-10-17T09:59:58.747Z,62.5
2022-10-17T10:01:24.116Z,62.5
2022-10-17T10:02:48.599Z,62.5
2022-10-17T10:04:13.566Z,62
2022-10-17T10:05:38.475Z,62.5
2022-10-17T10:07:03.404Z,62.5
2022-10-17T10:08:28.340Z,62.5
2022-10-17T10:10:41.206Z,62.5
2022-10-17T10:11:47.620Z,62
2022-10-17T10:12:54.105Z,62
2022-10-17T10:14:00.517Z,62
2022-10-17T10:15:06.943Z,62
2022-10-17T10:16:13.364Z,62
2022-10-17T10:17:19.794Z,62
2022-10-17T10:18:26.312Z,62.5
2022-10-17T10:19:32.687Z,62.5
2022-10-17T10:20:39.074Z,62
2022-10-17T10:21:47.116Z,62.5
2022-10-17T10:22:52.913Z,62
2022-10-17T10:25:04.785Z,62.5
2022-10-17T10:26:29.694Z,62.5
2022-10-17T10:28:13.161Z,62.5
2022-10-17T10:29:19.624Z,62
2022-10-17T10:30:44.553Z,62.5
2022-10-17T10:32:09.510Z,62
2022-10-17T10:33:34.449Z,62
2022-10-17T10:34:59.418Z,61.5
2022-10-17T10:36:24.859Z,61.5
2022-10-17T10:37:50.222Z,61.5
2022-10-17T10:39:15.175Z,62
2022-10-17T10:40:40.118Z,62
2022-10-17T10:42:52.968Z,61.5
2022-10-17T10:43:59.372Z,61.5
2022-10-17T10:45:05.805Z,61.5
2022-10-17T10:46:12.245Z,61.5
2022-10-17T10:47:18.660Z,61.5
2022-10-17T10:48:25.079Z,61.5
2022-10-17T10:49:31.519Z,61
2022-10-17T10:50:39.650Z,62
2022-10-17T10:51:44.396Z,62
2022-10-17T10:52:50.789Z,62
2022-10-17T10:53:57.212Z,62
2022-10-17T10:55:03.648Z,62
2022-10-17T10:56:10.082Z,62
2022-10-17T10:58:23.369Z,62
2022-10-17T10:59:48.302Z,62
2022-10-17T11:01:13.337Z,62
2022-10-17T11:02:38.234Z,62
2022-10-17T11:04:03.143Z,62
2022-10-17T11:05:28.101Z,62
2022-10-17T11:07:11.598Z,61.5
2022-10-17T11:08:17.998Z,62
2022-10-17T11:09:42.945Z,61.5
2022-10-17T11:11:07.901Z,62
2022-10-17T11:12:33.378Z,62
2022-10-17T11:13:58.752Z,61.5
2022-10-17T11:15:05.183Z,62
2022-10-17T11:16:11.584Z,62
2022-10-17T11:17:18.036Z,62
2022-10-17T11:18:24.455Z,62
2022-10-17T11:19:30.868Z,62
2022-10-17T11:20:37.315Z,62
2022-10-17T11:21:43.794Z,61.5
2022-10-17T11:22:50.193Z,61.5
2022-10-17T11:23:56.586Z,61.5
2022-10-17T11:25:03.001Z,62
2022-10-17T11:26:09.460Z,62
2022-10-17T11:27:15.849Z,61.5
2022-10-17T11:28:22.338Z,62
2022-10-17T11:29:28.711Z,62
2022-10-17T11:30:35.161Z,61.5
2022-10-17T11:31:41.557Z,61.5
2022-10-17T11:35:01.281Z,61.5
2022-10-17T11:36:26.201Z,61.5
2022-10-17T11:37:51.151Z,61.5
2022-10-17T11:39:16.140Z,61.5
2022-10-17T11:40:41.059Z,61.5
2022-10-17T11:42:06.006Z,61.5
2022-10-17T11:43:30.945Z,61.5
2022-10-17T11:44:55.892Z,61.5
2022-10-17T11:46:20.840Z,61.5
2022-10-17T11:48:04.325Z,61.5
2022-10-17T11:49:10.819Z,61.5
2022-10-17T11:52:56.250Z,61.5
2022-10-17T11:53:54.955Z,61.5
2022-10-17T11:55:01.402Z,61.5
2022-10-17T11:56:07.807Z,61.5
2022-10-17T11:57:14.892Z,61.5
2022-10-17T11:59:27.389Z,61
2022-10-17T12:00:34.912Z,61
2022-10-17T12:02:46.667Z,61.5
2022-10-17T12:04:59.510Z,61
2022-10-17T12:06:28.543Z,61
2022-10-17T12:07:49.409Z,61
2022-10-17T12:09:14.355Z,61
2022-10-17T12:10:39.343Z,61
2022-10-17T12:12:04.273Z,60.5
2022-10-17T12:13:29.215Z,60.5
2022-10-17T12:14:54.160Z,60.5
2022-10-17T12:16:19.119Z,60
2022-10-17T12:17:44.034Z,60
2022-10-17T12:19:08.990Z,60
2022-10-17T12:20:33.936Z,60
2022-10-17T12:21:42.832Z,60
2022-10-17T12:23:53.268Z,60
2022-10-17T12:24:59.713Z,60
2022-10-17T12:26:06.128Z,60
2022-10-17T12:27:12.520Z,60
2022-10-17T12:28:18.953Z,60
2022-10-17T12:29:25.383Z,60
2022-10-17T12:30:31.808Z,60.5
2022-10-17T12:31:38.226Z,60.5
2022-10-17T12:33:00.231Z,60.5
2022-10-17T12:34:57.514Z,60
2022-10-17T12:37:47.396Z,60.5
2022-10-17T12:39:12.363Z,60.5
2022-10-17T12:40:37.270Z,60.5
2022-10-17T12:42:20.771Z,60
2022-10-17T12:43:27.167Z,60.5
2022-10-17T12:44:52.155Z,60.5
2022-10-17T12:46:17.099Z,60
2022-10-17T12:48:00.625Z,60.5
2022-10-17T12:49:06.954Z,60.5
2022-10-17T12:50:50.454Z,60.5
2022-10-17T12:51:56.867Z,60.5
2022-10-17T12:54:47.304Z,60
2022-10-17T12:56:11.718Z,60
2022-10-17T12:57:36.685Z,60
2022-10-17T12:59:01.612Z,60
2022-10-17T13:00:26.620Z,60
2022-10-17T13:01:51.591Z,60
2022-10-17T13:03:16.471Z,60
2022-10-17T13:04:41.428Z,60
2022-10-17T13:06:06.373Z,60
2022-10-17T13:07:31.601Z,60
2022-10-17T13:08:59.841Z,60
2022-10-17T13:10:21.268Z,60
2022-10-17T13:11:27.640Z,60
2022-10-17T13:12:36.589Z,60
2022-10-17T13:13:40.758Z,60
2022-10-17T13:14:47.148Z,60
2022-10-17T13:15:53.565Z,60
2022-10-17T13:16:59.987Z,60
2022-10-17T13:18:06.425Z,60
2022-10-17T13:20:22.775Z,60
2022-10-17T13:21:25.709Z,60
2022-10-17T13:22:32.678Z,60
2022-10-17T13:23:38.532Z,60
2022-10-17T13:24:44.975Z,60
2022-10-17T13:25:51.396Z,60
2022-10-17T13:26:57.810Z,60
2022-10-17T13:28:04.257Z,60
2022-10-17T13:30:17.185Z,60
2022-10-17T13:31:42.036Z,60
2022-10-17T13:33:06.971Z,60
2022-10-17T13:34:32.009Z,60
2022-10-17T13:36:00.275Z,60
2022-10-17T13:37:40.354Z,60
2022-10-17T13:38:46.794Z,60
2022-10-17T13:40:31.075Z,60
2022-10-17T13:41:37.252Z,60
2022-10-17T13:43:20.147Z,59
2022-10-17T13:44:26.587Z,60
2022-10-17T13:45:51.538Z,59
2022-10-17T13:46:57.928Z,59
2022-10-17T13:48:04.363Z,58.5
2022-10-17T13:49:10.785Z,58.5
2022-10-17T13:50:32.675Z,59
2022-10-17T13:52:30.506Z,58.5
2022-10-17T13:53:36.486Z,58.5
2022-10-17T13:54:42.910Z,59
2022-10-17T13:58:02.673Z,58
2022-10-17T13:59:27.600Z,58.5
2022-10-17T14:00:52.629Z,58.5
2022-10-17T14:02:17.546Z,58.5
2022-10-17T14:03:48.460Z,58.5
2022-10-17T14:05:22.905Z,58.5
2022-10-17T14:06:52.169Z,58
2022-10-17T14:08:15.170Z,58
2022-10-17T14:09:22.262Z,58
2022-10-17T14:11:05.740Z,58
2022-10-17T14:12:12.148Z,58
2022-10-17T14:13:37.084Z,58
2022-10-17T14:15:05.500Z,58.5
2022-10-17T14:15:49.947Z,58
2022-10-17T14:16:56.395Z,58.5
2022-10-17T14:18:06.803Z,58.5
2022-10-17T14:19:09.219Z,58
2022-10-17T14:20:48.090Z,58
2022-10-17T14:21:40.804Z,57.5
2022-10-17T14:22:28.807Z,58
2022-10-17T14:23:35.209Z,58.5
2022-10-17T14:25:48.063Z,58
2022-10-17T14:26:54.556Z,58
2022-10-17T14:28:00.929Z,58.5
2022-10-17T14:29:07.462Z,58.5
2022-10-17T14:30:13.776Z,58.5
2022-10-17T14:31:20.207Z,58.5
2022-10-17T14:33:33.385Z,58.5
2022-10-17T14:35:05.655Z,58
2022-10-17T14:36:22.952Z,57.5
2022-10-17T14:37:47.901Z,57.5
2022-10-17T14:39:14.461Z,57.5
2022-10-17T14:40:38.324Z,57
2022-10-17T14:42:21.844Z,57.5
2022-10-17T14:43:28.207Z,57
2022-10-17T14:44:53.160Z,56.5
2022-10-17T14:46:18.116Z,56.5
2022-10-17T14:48:01.587Z,57
2022-10-17T14:50:33.022Z,56.5
2022-10-17T14:51:44.644Z,56.5
2022-10-17T14:52:45.794Z,56.5
2022-10-17T14:53:52.339Z,56.5
2022-10-17T14:54:58.744Z,56.5
2022-10-17T14:56:05.182Z,56.5
2022-10-17T14:57:11.650Z,56.5
2022-10-17T14:58:18.036Z,56.5
2022-10-17T15:00:30.888Z,56.5
2022-10-17T15:01:37.287Z,56
2022-10-17T15:02:43.738Z,56.5
2022-10-17T15:03:50.244Z,56
2022-10-17T15:04:56.573Z,56
2022-10-17T15:06:03.032Z,56
2022-10-17T15:07:09.501Z,56.5
2022-10-17T15:08:15.851Z,56
2022-10-17T15:09:22.291Z,56
2022-10-17T15:10:28.703Z,56
2022-10-17T15:11:35.128Z,56.5
2022-10-17T15:12:47.875Z,56
2022-10-17T15:13:48.480Z,56.5
2022-10-17T15:14:54.928Z,56.5
2022-10-17T15:16:01.339Z,56.5
2022-10-17T15:17:07.767Z,56.5
2022-10-17T15:18:14.188Z,57
2022-10-17T15:19:20.607Z,56.5
2022-10-17T15:20:27.039Z,56.5
2022-10-17T15:21:39.422Z,56.5
2022-10-17T15:22:39.898Z,57
2022-10-17T15:23:46.320Z,57
2022-10-17T15:24:52.741Z,56.5
2022-10-17T15:25:59.163Z,56.5
2022-10-17T15:27:05.589Z,57
2022-10-17T15:28:12.028Z,56.5
2022-10-17T15:29:18.429Z,57
2022-10-17T15:30:24.888Z,57
2022-10-17T15:31:31.358Z,56.5
2022-10-17T15:32:37.795Z,56.5
2022-10-17T15:33:44.208Z,56.5
2022-10-17T15:34:50.647Z,56.5
2022-10-17T15:37:03.574Z,57
2022-10-17T15:38:09.924Z,57
2022-10-17T15:39:16.369Z,57
2022-10-17T15:40:22.768Z,57
2022-10-17T15:41:48.114Z,57
2022-10-17T15:42:54.573Z,57
2022-10-17T15:44:00.966Z,57
2022-10-17T15:46:13.819Z,56.5
2022-10-17T15:47:20.232Z,57
2022-10-17T15:48:26.658Z,56.5
2022-10-17T15:49:33.079Z,57
2022-10-17T15:50:39.510Z,57
2022-10-17T15:51:45.966Z,57
2022-10-17T15:52:52.404Z,57
2022-10-17T15:53:58.836Z,57
2022-10-17T15:55:05.431Z,57
2022-10-17T15:56:11.796Z,57.5
2022-10-17T15:57:18.058Z,57
2022-10-17T15:58:24.485Z,57
2022-10-17T15:59:30.977Z,57
2022-10-17T16:00:37.485Z,57.5
2022-10-17T16:01:43.823Z,57.5
2022-10-17T16:02:50.245Z,57.5
2022-10-17T16:03:56.683Z,57.5
2022-10-17T16:05:03.114Z,57.5
2022-10-17T16:06:10.744Z,57.5
2022-10-17T16:07:15.946Z,57.5
2022-10-17T16:08:22.426Z,57.5
2022-10-17T16:09:28.800Z,57.5
2022-10-17T16:10:35.238Z,57.5
2022-10-17T16:12:48.068Z,57.5
2022-10-17T16:13:54.494Z,57
2022-10-17T16:15:00.947Z,57
2022-10-17T16:16:07.347Z,57
2022-10-17T16:17:13.770Z,57.5
2022-10-17T16:18:20.613Z,57.5
2022-10-17T16:19:27.062Z,57.5
2022-10-17T16:20:33.468Z,57.5
2022-10-17T16:21:39.898Z,57.5
2022-10-17T16:22:46.351Z,57.5
2022-10-17T16:23:52.781Z,58
2022-10-17T16:24:59.206Z,58
2022-10-17T16:26:05.588Z,58
2022-10-17T16:27:12.031Z,58
2022-10-17T16:28:18.455Z,58
2022-10-17T16:29:24.871Z,58
2022-10-17T16:31:37.746Z,58
2022-10-17T16:32:44.160Z,58
2022-10-17T16:34:57.030Z,58
2022-10-17T16:36:40.455Z,58.5
2022-10-17T16:37:47.341Z,58
2022-10-17T16:39:12.749Z,58.5
2022-10-17T16:40:37.661Z,58
2022-10-17T16:42:02.614Z,58.5
2022-10-17T16:43:27.557Z,58.5
2022-10-17T16:44:52.528Z,58.5
2022-10-17T16:46:17.521Z,58.5
2022-10-17T16:47:42.407Z,58.5
2022-10-17T16:49:07.360Z,58.5
2022-10-17T16:50:32.310Z,58.5
2022-10-17T16:51:38.844Z,58.5
2022-10-17T16:52:45.151Z,58.5
2022-10-17T16:54:58.024Z,58.5
2022-10-17T16:56:04.424Z,58.5
2022-10-17T16:58:17.277Z,58.5
2022-10-17T16:59:23.704Z,58.5
2022-10-17T17:00:30.195Z,58.5
2022-10-17T17:01:36.673Z,58.5
2022-10-17T17:02:43.108Z,58.5
2022-10-17T17:04:26.554Z,58.5
2022-10-17T17:05:32.996Z,58.5
2022-10-17T17:06:57.948Z,58.5
2022-10-17T17:08:22.906Z,58.5
2022-10-17T17:09:47.846Z,58.5
2022-10-17T17:11:12.817Z,58.5
2022-10-17T17:12:56.266Z,59
2022-10-17T17:14:02.695Z,58.5
2022-10-17T17:15:27.634Z,58.5
2022-10-17T17:16:52.834Z,58.5
2022-10-17T17:18:17.782Z,59
2022-10-17T17:19:24.203Z,59
2022-10-17T17:20:30.658Z,59
2022-10-17T17:21:37.053Z,59
2022-10-17T17:22:43.466Z,59
2022-10-17T17:23:49.926Z,59
2022-10-17T17:24:56.357Z,59
2022-10-17T17:26:02.750Z,59
2022-10-17T17:27:11.275Z,59
2022-10-17T17:28:16.012Z,59
2022-10-17T17:29:22.457Z,59
2022-10-17T17:30:28.870Z,59
2022-10-17T17:32:41.735Z,59
2022-10-17T17:34:54.576Z,59
2022-10-17T17:36:19.502Z,59
2022-10-17T17:37:44.929Z,59
2022-10-17T17:39:09.875Z,59
2022-10-17T17:41:59.782Z,59
2022-10-17T17:43:24.764Z,59
2022-10-17T17:44:49.683Z,59
2022-10-17T17:46:14.648Z,59
2022-10-17T17:47:39.609Z,59
2022-10-17T17:49:04.543Z,59
2022-10-17T17:50:29.501Z,59.5
2022-10-17T17:51:54.446Z,59.5
2022-10-17T17:53:19.444Z,59.5
2022-10-17T17:54:44.336Z,59.5
2022-10-17T17:56:09.294Z,59.5
2022-10-17T17:57:34.249Z,59.5
2022-10-17T17:58:59.269Z,59.5
2022-10-17T18:00:24.149Z,59.5
2022-10-17T18:01:49.121Z,59.5
2022-10-17T18:03:14.045Z,59.5
2022-10-17T18:04:38.987Z,59.5
2022-10-17T18:06:03.944Z,59.5
2022-10-17T18:08:35.296Z,59.5
2022-10-17T18:09:41.733Z,59.5
2022-10-17T18:10:48.141Z,59.5
2022-10-17T18:13:00.997Z,59.5
2022-10-17T18:14:07.439Z,59.5
2022-10-17T18:15:13.845Z,59.5
2022-10-17T18:16:20.285Z,59.5
2022-10-17T18:17:26.964Z,59.5
2022-10-17T18:18:33.387Z,59.5
2022-10-17T18:19:39.814Z,59.5
2022-10-17T18:20:46.253Z,59.5
2022-10-17T18:21:52.655Z,59.5
2022-10-17T18:23:00.500Z,59.5
2022-10-17T18:24:05.519Z,59.5
2022-10-17T18:25:11.945Z,59.5
2022-10-17T18:26:18.353Z,59.5
2022-10-17T18:27:24.791Z,59.5
2022-10-17T18:28:31.341Z,59.5
2022-10-17T18:29:37.675Z,59.5
2022-10-17T18:30:44.067Z,60
2022-10-17T18:31:50.501Z,59.5
2022-10-17T18:32:56.926Z,59.5
2022-10-17T18:34:03.343Z,60
2022-10-17T18:35:09.771Z,59.5
2022-10-17T18:37:23.060Z,59.5
2022-10-17T18:39:35.918Z,59.5
2022-10-17T18:40:43.396Z,59.5
2022-10-17T18:41:48.758Z,59.5
2022-10-17T18:42:55.196Z,59.5
2022-10-17T18:44:01.625Z,60
2022-10-17T18:45:08.054Z,60
2022-10-17T18:46:15.018Z,60